Terminal Aerodrome Forecast
Issued by NWS Boston, MA

Home | Current Version | Previous Version | Text Only | Print | Product List | Glossary Off
Versions: 1 2 3 4 5 6 7 8 9 10 11 12 13 14 15 16 17 18 19 20 21 22 23 24 25 26 27 28 29 30 31 32 33
000 FTUS41 KBOX 011728 TAFORH TAF KORH 011728Z 0118/0218 29008KT P6SM FEW025 SCT140 FM012100 29006KT P6SM FEW025 BKN110 FM020200 02004KT P6SM OVC050 FM020500 07006KT 3SM -SN OVC040 FM020700 07007KT 1/2SM SN OVC025 FM021200 06010KT 1/4SM +SN OVC008=

USA.gov is the U.S. government's official web portal to all federal, state and local government web resources and services.